Decatur Airport

Airport
ICAO code: 
KDEC
Summary
ICAO Region: 
NAM
Territory: 
Location: 
Decatur, Illinois,
Elevation: 
682 ft
Coordinates: 
Aerial View: 
39° 50' 2.311" N, 88° 51' 32.863" W
Metar
Observation
KDEC 040654Z AUTO 02011KT 10SM CLR 04/02 A3012 RMK AO2 SLP203 T00390017
Station
Decatur, Decatur Airport
Date/Time
2021-12-04 06:54:00
Wind direction
20°
Wind speed
11 kts
Lowest cloud amount
n/a
Temperature
3.9°C
Dew point
1.7°C
Humidity
85%
Weather condition
n/a

Description

Decatur Airport is a public use airport located 7 km east of the central business district of Decatur, a city in Macon County, Illinois.

Climatology

Humid continental climate (Köppen climate classification Dfa) - characterized by four seasons: cold, windy, snowy winters, mild springs, hot, humid summers, and crisp and relatively short autumns. Precipitation reaches its lowest in January and February and peaks in summer and latter half of spring.

Runways

Designator Length Width Surface Rops
18/36 1615 46 ASP Yes/Yes
12/30 2072 46 PEM Yes/Yes
6/24 2590 46 PEM Yes/Yes
Airport map: 
Aerial View: 

SKYbrary Partners:

Safety knowledge contributed by: